Verdigre, Nebraska
Current Conditions -  °F | °C
As of 4:55 PM on Thursday 20 Nov 2014 (Local Time) from KONL Reporting Station
Clear Clear  
Wind Chill: 16°   Ceiling: Unl
Heat Index: 24°   Visibility: 10mi
Dew Point: 20°   Wind: 7mph
Humidity: 84%   Direction: 90°E
Pressure: 30.1"   Gusts: NA
Location:  42.6°N, 98.03°W
Report Text: KONL 202255Z AUTO 09006KT 10SM CLR M04/M07 A3010 RMK AO2 T10421066
Loading
Personal Weather Stations






























Interactive Weather Map New forecast layout! Learn more

10-Day Weather Forecast

Advertisements
Track Severe Weather on mobile